Time;durP1;ratioP1;P1;durP2;ratioP2;P2;SDS_P1;SDS_P2;PMS_P1;PMS_P2;Temp;Humidity;BMP_temperature;BMP_pressure;BME280_temperature;BME280_humidity;BME280_pressure;Samples;Min_cycle;Max_cycle;Signal;HPM_P1;HPM_P2
2022/07/19 00:00:31;;;;;;;10.23;5.75;;;17.30;93.60;;;;;;5058765;28;20399;-64
2022/07/19 00:02:57;;;;;;;9.35;5.60;;;17.20;93.80;;;;;;5052277;28;20041;-65
2022/07/19 00:05:23;;;;;;;8.95;5.30;;;17.10;93.90;;;;;;5047647;28;20052;-65
2022/07/19 00:07:48;;;;;;;12.18;5.88;;;17.10;94.00;;;;;;5053425;28;20523;-64
2022/07/19 00:10:16;;;;;;;10.20;5.68;;;17.10;94.00;;;;;;5053988;28;20104;-64
2022/07/19 00:12:42;;;;;;;8.93;5.90;;;17.00;94.20;;;;;;5058757;28;20037;-65
2022/07/19 00:15:10;;;;;;;7.45;5.45;;;17.10;94.40;;;;;;5061548;28;20070;-64
2022/07/19 00:17:43;;;;;;;8.60;6.70;;;17.00;94.60;;;;;;5053709;28;20080;-64
2022/07/19 00:20:11;;;;;;;8.80;5.47;;;17.00;94.80;;;;;;5064040;28;20135;-64
2022/07/19 00:22:37;;;;;;;8.60;5.55;;;16.90;95.00;;;;;;5066975;28;20043;-64
2022/07/19 00:25:04;;;;;;;7.18;5.43;;;16.90;95.10;;;;;;5063803;28;20469;-64
2022/07/19 00:27:29;;;;;;;8.30;5.95;;;16.90;95.30;;;;;;5056506;28;20417;-64
2022/07/19 00:29:55;;;;;;;9.32;5.22;;;16.90;95.50;;;;;;5060342;28;20116;-64
2022/07/19 00:32:21;;;;;;;9.90;5.55;;;16.90;95.60;;;;;;5052857;28;20040;-65
2022/07/19 00:34:46;;;;;;;9.30;5.82;;;16.90;95.70;;;;;;5061969;28;20044;-65
2022/07/19 00:37:12;;;;;;;10.63;6.50;;;16.90;95.80;;;;;;5067573;28;20403;-64
2022/07/19 00:39:37;;;;;;;8.93;6.13;;;16.90;96.00;;;;;;5063095;28;20116;-64
2022/07/19 00:42:03;;;;;;;8.20;5.68;;;16.90;96.00;;;;;;5059430;28;20660;-64
2022/07/19 00:44:30;;;;;;;10.20;6.45;;;16.90;96.10;;;;;;5054435;28;20037;-64
2022/07/19 00:46:56;;;;;;;9.43;5.78;;;16.90;96.60;;;;;;5058330;28;20476;-64
2022/07/19 00:49:22;;;;;;;10.05;6.15;;;16.90;96.30;;;;;;5050813;28;20037;-64
2022/07/19 00:51:52;;;;;;;8.55;6.30;;;16.80;96.40;;;;;;5055661;28;20029;-64
2022/07/19 00:54:19;;;;;;;7.65;5.45;;;16.70;96.50;;;;;;5055979;28;20051;-64
2022/07/19 00:56:49;;;;;;;10.10;6.35;;;16.70;96.90;;;;;;5066752;28;20135;-64
2022/07/19 00:59:15;;;;;;;11.80;7.20;;;16.60;96.80;;;;;;5057779;28;20048;-64
2022/07/19 01:01:41;;;;;;;10.27;6.40;;;16.60;96.90;;;;;;5050002;28;20485;-64
2022/07/19 01:04:07;;;;;;;8.98;5.78;;;16.60;97.10;;;;;;5061671;28;20039;-64
2022/07/19 01:06:32;;;;;;;11.38;6.93;;;16.60;97.20;;;;;;5053194;28;20045;-64
2022/07/19 01:08:58;;;;;;;9.93;6.55;;;16.60;97.40;;;;;;5053966;28;20035;-65
2022/07/19 01:11:24;;;;;;;12.55;6.15;;;16.60;97.50;;;;;;5060641;28;20041;-64
2022/07/19 01:13:49;;;;;;;8.85;5.40;;;16.50;97.60;;;;;;5058760;28;20077;-64
2022/07/19 01:16:15;;;;;;;10.27;6.05;;;16.50;97.70;;;;;;5052556;28;20036;-64
2022/07/19 01:18:41;;;;;;;12.80;6.53;;;16.50;97.90;;;;;;5063618;28;20431;-64
2022/07/19 01:21:07;;;;;;;9.68;6.60;;;16.50;98.00;;;;;;5061373;28;20044;-64
2022/07/19 01:23:33;;;;;;;8.27;6.20;;;16.50;98.10;;;;;;5051537;28;20388;-65
2022/07/19 01:25:59;;;;;;;9.05;5.80;;;16.50;98.10;;;;;;5049186;28;20045;-64
2022/07/19 01:28:24;;;;;;;13.32;7.03;;;16.50;98.30;;;;;;5056616;28;20169;-64
2022/07/19 01:30:50;;;;;;;11.80;7.57;;;16.40;98.30;;;;;;5056226;28;20070;-64
2022/07/19 01:33:16;;;;;;;10.82;7.35;;;16.40;98.40;;;;;;5055159;28;20059;-64
2022/07/19 01:35:42;;;;;;;11.27;7.28;;;16.40;98.40;;;;;;5062527;28;20048;-64
2022/07/19 01:38:08;;;;;;;11.75;6.50;;;16.40;98.40;;;;;;5070010;28;20036;-64
2022/07/19 01:40:33;;;;;;;9.32;6.05;;;16.40;98.50;;;;;;5059152;28;20097;-64
2022/07/19 01:42:59;;;;;;;10.57;6.30;;;16.40;98.60;;;;;;5053620;28;20440;-65
2022/07/19 01:45:25;;;;;;;9.63;6.60;;;16.40;98.70;;;;;;5063246;28;20385;-65
2022/07/19 01:47:50;;;;;;;11.20;7.03;;;16.40;98.70;;;;;;5063179;28;20043;-64
2022/07/19 01:50:17;;;;;;;14.25;7.22;;;16.30;98.70;;;;;;5053216;28;20041;-64
2022/07/19 01:52:43;;;;;;;9.02;6.20;;;16.30;98.80;;;;;;5060794;28;20116;-64
2022/07/19 01:55:09;;;;;;;9.85;6.65;;;16.30;98.90;;;;;;5057227;28;20053;-64
2022/07/19 01:57:34;;;;;;;9.07;6.88;;;16.30;99.00;;;;;;5065863;28;20044;-64
2022/07/19 02:00:00;;;;;;;11.70;6.93;;;16.30;99.10;;;;;;5064499;28;20090;-64
2022/07/19 02:02:26;;;;;;;13.02;7.15;;;16.20;99.10;;;;;;5054694;28;20051;-64
2022/07/19 02:04:52;;;;;;;12.27;7.45;;;16.20;99.20;;;;;;5056419;28;20469;-64
2022/07/19 02:07:17;;;;;;;12.23;7.82;;;16.20;99.20;;;;;;5052190;28;20043;-64
2022/07/19 02:09:43;;;;;;;11.98;7.80;;;16.20;99.30;;;;;;5053599;28;21941;-64
2022/07/19 02:12:09;;;;;;;11.45;7.28;;;16.10;99.40;;;;;;5057812;28;20119;-64
2022/07/19 02:14:34;;;;;;;11.02;7.38;;;16.10;99.50;;;;;;5063793;28;20090;-64
2022/07/19 02:17:00;;;;;;;13.40;7.88;;;16.10;99.60;;;;;;5068528;28;20041;-64
2022/07/19 02:19:26;;;;;;;11.95;7.60;;;16.10;99.60;;;;;;5067816;28;20090;-64
2022/07/19 02:21:52;;;;;;;12.20;7.70;;;16.10;99.60;;;;;;5054035;28;20071;-64
2022/07/19 02:24:18;;;;;;;12.13;7.55;;;16.00;99.70;;;;;;5039058;28;20045;-66
2022/07/19 02:26:44;;;;;;;9.45;7.68;;;16.00;99.90;;;;;;5045852;28;20037;-66
2022/07/19 02:29:10;;;;;;;11.90;7.60;;;16.00;99.80;;;;;;5068731;28;20036;-66
2022/07/19 02:31:36;;;;;;;10.63;7.43;;;16.00;99.60;;;;;;5059202;28;20036;-64
2022/07/19 02:34:02;;;;;;;13.02;7.47;;;16.00;99.60;;;;;;5059603;28;20044;-65
2022/07/19 02:36:27;;;;;;;10.50;7.18;;;15.90;99.70;;;;;;5068645;28;20411;-66
2022/07/19 02:38:53;;;;;;;10.65;7.32;;;16.00;99.80;;;;;;5065374;28;20079;-66
2022/07/19 02:41:19;;;;;;;10.60;7.63;;;15.90;99.90;;;;;;5070874;28;20082;-67
2022/07/19 02:43:45;;;;;;;10.80;7.47;;;15.90;99.90;;;;;;5070723;28;20040;-66
2022/07/19 02:46:11;;;;;;;15.93;8.63;;;15.90;99.90;;;;;;5069820;28;20047;-66
2022/07/19 02:48:37;;;;;;;13.75;7.45;;;15.90;99.90;;;;;;5046089;28;20036;-66
2022/07/19 02:51:03;;;;;;;12.15;7.72;;;15.90;99.90;;;;;;5066493;28;20044;-66
2022/07/19 02:53:29;;;;;;;13.10;8.25;;;15.80;99.90;;;;;;5053498;28;20235;-64
2022/07/19 02:55:55;;;;;;;12.38;8.73;;;15.80;99.90;;;;;;5055246;28;20076;-64
2022/07/19 02:58:21;;;;;;;15.82;9.65;;;15.70;99.90;;;;;;5062106;28;20077;-64
2022/07/19 03:00:47;;;;;;;12.15;8.98;;;15.70;99.90;;;;;;5067583;28;20501;-64
2022/07/19 03:05:57;;;;;;;11.88;8.43;;;15.70;99.90;;;;;;5058347;28;20127;-64
2022/07/19 03:08:23;;;;;;;14.50;7.95;;;15.70;99.90;;;;;;5061017;28;20488;-64
2022/07/19 03:10:49;;;;;;;19.35;7.93;;;15.80;99.90;;;;;;5068100;28;20047;-64
2022/07/19 03:13:15;;;;;;;11.55;7.97;;;15.80;99.90;;;;;;5061999;28;20033;-64
2022/07/19 03:15:41;;;;;;;14.15;8.32;;;15.70;99.90;;;;;;5060003;28;20117;-65
2022/07/19 03:18:07;;;;;;;11.40;8.50;;;15.60;99.90;;;;;;5044988;28;20528;-65
2022/07/19 03:20:34;;;;;;;14.52;10.02;;;15.60;99.90;;;;;;5046274;28;20032;-65
2022/07/19 03:23:00;;;;;;;13.02;9.07;;;15.60;99.90;;;;;;5033722;28;20056;-64
2022/07/19 03:25:26;;;;;;;14.60;9.77;;;15.50;99.90;;;;;;5031564;28;20074;-65
2022/07/19 03:27:52;;;;;;;15.38;10.57;;;15.50;99.90;;;;;;5067259;28;20041;-64
2022/07/19 03:30:18;;;;;;;15.00;9.75;;;15.50;99.90;;;;;;5038931;28;20036;-65
2022/07/19 03:32:44;;;;;;;18.75;9.80;;;15.50;99.90;;;;;;5050751;28;20043;-65
2022/07/19 03:35:10;;;;;;;17.00;9.90;;;15.60;99.90;;;;;;5061161;28;20127;-65
2022/07/19 03:37:35;;;;;;;10.65;8.63;;;15.60;99.90;;;;;;5039884;28;20129;-66
2022/07/19 03:40:02;;;;;;;11.48;8.00;;;15.70;99.90;;;;;;5062256;28;20454;-66
2022/07/19 03:42:28;;;;;;;16.77;9.15;;;15.70;99.90;;;;;;5038115;28;20052;-66
2022/07/19 03:44:54;;;;;;;11.55;8.82;;;15.70;99.90;;;;;;5056870;28;20437;-66
2022/07/19 03:47:20;;;;;;;11.68;8.35;;;15.70;99.90;;;;;;5041312;28;20032;-66
2022/07/19 03:49:46;;;;;;;12.27;8.43;;;15.70;99.90;;;;;;5046455;28;20078;-65
2022/07/19 03:52:13;;;;;;;11.38;8.00;;;15.70;99.90;;;;;;5052249;28;20040;-65
2022/07/19 03:54:39;;;;;;;13.93;8.52;;;15.70;99.90;;;;;;5035364;28;20052;-66
2022/07/19 03:57:05;;;;;;;12.45;8.80;;;15.80;99.90;;;;;;5012723;28;1463655;-66
2022/07/19 03:59:31;;;;;;;10.48;7.20;;;15.70;99.90;;;;;;5062584;28;20122;-66
2022/07/19 04:01:57;;;;;;;11.68;7.35;;;15.70;99.90;;;;;;5054619;28;20048;-65
2022/07/19 04:04:23;;;;;;;10.45;7.57;;;15.70;99.90;;;;;;5059590;28;20040;-66
2022/07/19 04:06:48;;;;;;;13.07;7.50;;;15.70;99.90;;;;;;5053605;28;20762;-65
2022/07/19 04:09:14;;;;;;;11.13;7.20;;;15.80;99.80;;;;;;5059428;28;20086;-65
2022/07/19 04:11:39;;;;;;;11.20;7.35;;;15.80;99.60;;;;;;5065282;28;20032;-66
2022/07/19 04:14:06;;;;;;;11.98;7.22;;;15.80;99.50;;;;;;5056651;28;20095;-66
2022/07/19 04:16:31;;;;;;;11.60;6.40;;;15.80;99.50;;;;;;5050339;28;20132;-66
2022/07/19 04:18:57;;;;;;;9.20;6.78;;;15.80;99.30;;;;;;5062941;28;20104;-66
2022/07/19 04:21:22;;;;;;;8.48;6.72;;;15.80;99.30;;;;;;5068547;28;20364;-66
2022/07/19 04:23:48;;;;;;;7.97;6.40;;;15.80;99.20;;;;;;5066903;28;20032;-66
2022/07/19 04:26:13;;;;;;;7.85;5.72;;;15.80;99.20;;;;;;5051890;28;20122;-66
2022/07/19 04:28:39;;;;;;;10.02;6.80;;;15.80;99.50;;;;;;5057562;28;20086;-66
2022/07/19 04:31:05;;;;;;;7.95;5.60;;;15.80;99.20;;;;;;5059770;28;20033;-66
2022/07/19 04:33:30;;;;;;;11.40;5.82;;;15.80;99.10;;;;;;5056028;28;20102;-66
2022/07/19 04:35:56;;;;;;;10.70;5.93;;;15.80;99.00;;;;;;5048440;28;20033;-66
2022/07/19 04:38:22;;;;;;;10.60;5.50;;;15.80;99.00;;;;;;5066459;28;20032;-66
2022/07/19 04:40:48;;;;;;;9.98;6.18;;;15.80;99.10;;;;;;5066123;28;20036;-66
2022/07/19 04:43:13;;;;;;;12.52;6.75;;;15.80;99.30;;;;;;5056626;28;20033;-66
2022/07/19 04:45:44;;;;;;;12.40;6.75;;;15.80;99.50;;;;;;5053030;28;20040;-66
2022/07/19 04:48:10;;;;;;;8.38;7.03;;;15.80;99.70;;;;;;5053928;28;20120;-66
2022/07/19 04:50:35;;;;;;;11.15;7.15;;;15.90;99.80;;;;;;5065751;28;20043;-65
2022/07/19 04:53:01;;;;;;;11.00;6.63;;;15.90;99.80;;;;;;5059619;28;20041;-66
2022/07/19 04:55:26;;;;;;;10.95;6.63;;;16.00;99.90;;;;;;5049226;28;20033;-66
2022/07/19 04:57:52;;;;;;;12.15;6.22;;;16.10;99.90;;;;;;5060460;28;20059;-66
2022/07/19 05:00:18;;;;;;;8.50;5.75;;;16.20;99.90;;;;;;5048680;28;20914;-66
2022/07/19 05:02:44;;;;;;;12.82;5.20;;;16.30;99.90;;;;;;5062117;28;20475;-66
2022/07/19 05:05:09;;;;;;;8.52;6.22;;;16.30;99.70;;;;;;5054084;28;20041;-66
2022/07/19 05:07:36;;;;;;;6.28;5.43;;;16.40;99.60;;;;;;5048490;28;20041;-65
2022/07/19 05:10:02;;;;;;;8.25;5.82;;;16.50;99.60;;;;;;5057518;28;20041;-65
2022/07/19 05:12:29;;;;;;;8.38;5.30;;;16.60;99.90;;;;;;5050248;28;20035;-66
2022/07/19 05:14:54;;;;;;;7.95;5.63;;;16.70;99.70;;;;;;5048977;28;20041;-66
2022/07/19 05:17:21;;;;;;;7.45;6.20;;;16.80;99.60;;;;;;5051549;28;20086;-65
2022/07/19 05:19:46;;;;;;;8.70;6.15;;;17.00;99.30;;;;;;5050427;28;20045;-65
2022/07/19 05:22:12;;;;;;;11.48;6.28;;;17.20;99.10;;;;;;5049944;28;20053;-66
2022/07/19 05:24:37;;;;;;;11.57;7.07;;;17.40;98.80;;;;;;5053476;28;20041;-66
2022/07/19 05:27:03;;;;;;;14.88;8.13;;;17.60;98.50;;;;;;5050871;28;20372;-66
2022/07/19 05:29:29;;;;;;;13.20;7.68;;;17.80;97.50;;;;;;5049227;28;20060;-65
2022/07/19 05:31:54;;;;;;;11.07;6.80;;;18.00;96.70;;;;;;5055192;28;20033;-66
2022/07/19 05:34:20;;;;;;;11.45;7.78;;;18.20;96.30;;;;;;5056230;28;20096;-66
2022/07/19 05:36:45;;;;;;;10.48;7.38;;;18.40;95.80;;;;;;5052098;28;20036;-65
2022/07/19 05:39:11;;;;;;;11.75;6.85;;;18.60;95.50;;;;;;5061888;28;20175;-65
2022/07/19 05:41:36;;;;;;;11.50;7.03;;;18.80;95.20;;;;;;5063852;28;20625;-65
2022/07/19 05:44:02;;;;;;;10.65;7.38;;;19.00;94.90;;;;;;5053918;28;20037;-65
2022/07/19 05:46:28;;;;;;;12.30;7.15;;;19.20;94.50;;;;;;5046103;28;20044;-65
2022/07/19 05:48:53;;;;;;;10.23;7.82;;;19.40;94.20;;;;;;5055761;28;20512;-64
2022/07/19 05:51:19;;;;;;;12.02;7.47;;;19.60;93.40;;;;;;5059799;28;20044;-65
2022/07/19 05:53:44;;;;;;;11.93;8.23;;;19.80;93.00;;;;;;5060549;28;20559;-65
2022/07/19 05:56:10;;;;;;;12.48;7.80;;;20.00;92.40;;;;;;5059839;28;20127;-65
2022/07/19 05:58:36;;;;;;;12.35;8.10;;;20.20;91.60;;;;;;5058906;28;20044;-64
2022/07/19 06:01:19;;;;;;;11.50;7.63;;;20.40;90.80;;;;;;5064050;28;20039;-64
2022/07/19 06:03:53;;;;;;;9.80;7.97;;;20.60;90.10;;;;;;5055507;28;20484;-65
2022/07/19 06:06:20;;;;;;;10.93;7.25;;;20.80;87.50;;;;;;5047832;28;20098;-66
2022/07/19 06:08:46;;;;;;;11.00;8.05;;;21.00;87.70;;;;;;5064526;28;20052;-65
2022/07/19 06:11:13;;;;;;;13.00;7.22;;;21.20;86.70;;;;;;5066720;28;20036;-66
2022/07/19 06:13:38;;;;;;;15.18;8.50;;;21.40;85.60;;;;;;5054323;28;20037;-65
2022/07/19 06:16:05;;;;;;;11.85;7.03;;;21.60;84.70;;;;;;5055643;28;20029;-65
2022/07/19 06:18:34;;;;;;;12.50;7.53;;;21.70;83.20;;;;;;5050161;28;20065;-66
2022/07/19 06:21:04;;;;;;;12.13;7.25;;;21.90;82.00;;;;;;5045191;28;20058;-65
2022/07/19 06:23:29;;;;;;;10.13;7.82;;;22.00;80.50;;;;;;5051679;28;20564;-64
2022/07/19 06:25:55;;;;;;;11.32;7.10;;;22.20;79.80;;;;;;5057530;28;20123;-65
2022/07/19 06:28:20;;;;;;;10.52;6.80;;;22.30;78.80;;;;;;5051940;28;20431;-65
2022/07/19 06:30:46;;;;;;;11.20;7.50;;;22.50;77.40;;;;;;5059361;28;20123;-65
2022/07/19 06:33:12;;;;;;;10.57;7.38;;;22.60;76.70;;;;;;5051533;28;20047;-65
2022/07/19 06:35:40;;;;;;;9.00;7.13;;;22.80;76.70;;;;;;5058049;28;20033;-65
2022/07/19 06:38:05;;;;;;;12.88;6.82;;;22.90;75.60;;;;;;5036135;28;20062;-65
2022/07/19 06:40:31;;;;;;;11.48;6.95;;;23.10;75.10;;;;;;5054792;28;20052;-64
2022/07/19 06:42:56;;;;;;;9.60;7.63;;;23.30;74.40;;;;;;5066710;28;20056;-64
2022/07/19 06:45:22;;;;;;;8.50;6.35;;;23.50;74.10;;;;;;5056453;28;20048;-65
2022/07/19 06:47:48;;;;;;;11.38;6.68;;;23.60;72.70;;;;;;5059678;28;20527;-65
2022/07/19 06:50:13;;;;;;;11.15;5.90;;;23.80;71.70;;;;;;5053115;28;20041;-63
2022/07/19 06:52:39;;;;;;;9.40;5.95;;;23.90;70.40;;;;;;5073615;28;20041;-62
2022/07/19 06:55:05;;;;;;;8.52;5.75;;;24.20;69.50;;;;;;5071182;28;20072;-62
2022/07/19 06:57:30;;;;;;;10.05;6.30;;;24.40;67.90;;;;;;5070252;28;20122;-63
2022/07/19 06:59:56;;;;;;;9.40;6.20;;;24.50;66.70;;;;;;5053671;28;20114;-62
2022/07/19 07:02:21;;;;;;;8.07;5.50;;;24.70;65.80;;;;;;5052266;28;20032;-64
2022/07/19 07:04:47;;;;;;;11.02;6.57;;;24.80;65.70;;;;;;5062108;28;20099;-61
2022/07/19 07:07:13;;;;;;;10.05;5.57;;;25.00;64.90;;;;;;5059918;28;20036;-60
2022/07/19 07:09:39;;;;;;;8.40;5.53;;;25.10;63.80;;;;;;5062965;28;20361;-62
2022/07/19 07:12:05;;;;;;;8.60;5.65;;;25.30;63.00;;;;;;5060574;28;20105;-63
2022/07/19 07:14:30;;;;;;;7.45;5.35;;;25.40;62.90;;;;;;5058894;28;20639;-62
2022/07/19 07:16:56;;;;;;;9.18;5.65;;;25.50;62.40;;;;;;5056647;28;20053;-63
2022/07/19 07:19:21;;;;;;;9.30;5.60;;;25.60;62.00;;;;;;5058082;28;20076;-63
2022/07/19 07:21:48;;;;;;;8.23;5.55;;;25.90;61.80;;;;;;5055034;28;20040;-62
2022/07/19 07:24:14;;;;;;;7.65;5.20;;;25.90;60.50;;;;;;5054901;28;20094;-62
2022/07/19 07:26:39;;;;;;;8.10;5.18;;;26.10;60.20;;;;;;5057106;28;20119;-62
2022/07/19 07:29:05;;;;;;;7.55;4.90;;;26.20;59.70;;;;;;5070645;28;20037;-66
2022/07/19 07:31:31;;;;;;;8.63;4.90;;;26.50;59.30;;;;;;5059649;28;20029;-63
2022/07/19 07:33:56;;;;;;;7.40;4.72;;;26.70;59.10;;;;;;5053331;28;20132;-64
2022/07/19 07:36:22;;;;;;;7.40;4.90;;;26.90;58.40;;;;;;5062425;28;20041;-63
2022/07/19 07:38:47;;;;;;;9.65;5.38;;;27.10;59.00;;;;;;5059988;28;20067;-63
2022/07/19 07:41:13;;;;;;;7.70;5.28;;;27.30;59.50;;;;;;5051144;28;20124;-62
2022/07/19 07:43:38;;;;;;;8.57;5.25;;;27.50;59.80;;;;;;5056037;28;20044;-64
2022/07/19 07:46:04;;;;;;;8.10;5.30;;;27.70;59.80;;;;;;5065870;28;20464;-62
2022/07/19 07:48:30;;;;;;;9.80;5.72;;;28.00;59.50;;;;;;5063572;28;20035;-63
2022/07/19 07:50:56;;;;;;;8.60;5.28;;;27.90;58.40;;;;;;5065408;28;20120;-62
2022/07/19 07:53:21;;;;;;;11.13;5.55;;;28.00;58.20;;;;;;5054909;28;20033;-63
2022/07/19 07:55:47;;;;;;;8.18;5.28;;;28.00;57.90;;;;;;5060568;28;20119;-61
2022/07/19 07:58:13;;;;;;;6.15;4.50;;;28.20;57.90;;;;;;5053649;28;20064;-62
2022/07/19 08:00:39;;;;;;;7.97;4.78;;;28.40;57.90;;;;;;5053154;28;20388;-61
2022/07/19 08:03:05;;;;;;;10.25;4.93;;;28.50;57.30;;;;;;5066198;28;20464;-62
2022/07/19 08:05:31;;;;;;;9.13;4.95;;;28.50;57.10;;;;;;5065427;28;20086;-63
2022/07/19 08:07:58;;;;;;;6.80;4.15;;;28.70;56.80;;;;;;5051884;28;20033;-63
2022/07/19 08:10:26;;;;;;;5.45;4.22;;;29.00;56.60;;;;;;5052235;28;20040;-62
2022/07/19 08:12:53;;;;;;;6.10;4.10;;;29.30;55.80;;;;;;5057992;28;20076;-64
2022/07/19 08:15:19;;;;;;;7.18;4.00;;;29.30;55.00;;;;;;5064797;28;20048;-64
2022/07/19 08:17:45;;;;;;;7.15;4.32;;;29.70;54.30;;;;;;5055256;28;20037;-63
2022/07/19 08:20:11;;;;;;;7.50;4.13;;;29.90;53.30;;;;;;5060794;28;20049;-64
2022/07/19 08:22:37;;;;;;;5.38;3.78;;;30.20;52.90;;;;;;5068724;28;20036;-63
2022/07/19 08:25:04;;;;;;;5.93;3.67;;;30.40;52.00;;;;;;5065067;28;20041;-63
2022/07/19 08:27:30;;;;;;;5.00;3.45;;;30.60;51.60;;;;;;5048599;28;20032;-64
2022/07/19 08:29:55;;;;;;;5.68;3.45;;;30.70;51.80;;;;;;5058076;28;20040;-65
2022/07/19 08:32:21;;;;;;;8.38;3.40;;;31.00;51.30;;;;;;5059729;28;20116;-62
2022/07/19 08:34:47;;;;;;;5.28;3.65;;;31.30;51.20;;;;;;5069600;28;20036;-63
2022/07/19 08:37:12;;;;;;;4.53;3.70;;;31.40;50.80;;;;;;5062604;28;20041;-62
2022/07/19 08:39:38;;;;;;;6.25;3.40;;;31.90;50.00;;;;;;5051550;28;20040;-63
2022/07/19 08:42:03;;;;;;;5.47;3.80;;;32.10;48.90;;;;;;5069184;28;20451;-62
2022/07/19 08:44:30;;;;;;;4.40;3.50;;;32.50;47.80;;;;;;5066520;28;20042;-64
2022/07/19 08:46:56;;;;;;;6.45;3.28;;;32.50;47.10;;;;;;5067143;28;20429;-64
2022/07/19 08:49:22;;;;;;;6.18;3.33;;;32.60;47.10;;;;;;5049384;28;20131;-65
2022/07/19 08:51:48;;;;;;;4.72;3.40;;;33.00;46.40;;;;;;5067854;28;20063;-65
2022/07/19 08:54:15;;;;;;;5.00;3.10;;;33.20;45.80;;;;;;5069641;28;20032;-64
2022/07/19 08:59:25;;;;;;;6.57;3.13;;;33.90;45.20;;;;;;5055117;28;20041;-64
2022/07/19 09:01:51;;;;;;;5.25;3.50;;;34.10;44.50;;;;;;5062146;28;20036;-63
2022/07/19 09:04:21;;;;;;;4.55;3.10;;;34.30;43.70;;;;;;5059803;28;20055;-64
2022/07/19 09:06:52;;;;;;;4.00;2.90;;;34.40;42.50;;;;;;5060496;28;20404;-64
2022/07/19 09:09:20;;;;;;;4.72;2.72;;;34.70;42.40;;;;;;5064112;28;20153;-64
2022/07/19 09:11:48;;;;;;;3.15;2.75;;;35.00;42.10;;;;;;5065933;28;20037;-64
2022/07/19 09:14:16;;;;;;;3.25;2.60;;;35.30;41.90;;;;;;5051190;28;20037;-65
2022/07/19 09:16:49;;;;;;;4.53;2.80;;;35.70;41.40;;;;;;5059554;28;20029;-65
2022/07/19 09:19:15;;;;;;;5.72;3.10;;;35.70;41.20;;;;;;5058782;28;20064;-62
2022/07/19 09:21:55;;;;;;;6.00;2.90;;;36.00;41.20;;;;;;5052048;28;20032;-63
2022/07/19 09:24:22;;;;;;;6.47;2.70;;;36.20;40.40;;;;;;5050047;28;20083;-63
2022/07/19 09:26:58;;;;;;;3.58;2.85;;;36.10;40.10;;;;;;5057253;28;20526;-62
2022/07/19 09:29:23;;;;;;;5.28;3.20;;;36.20;38.60;;;;;;5060681;28;20044;-64
2022/07/19 09:32:13;;;;;;;4.18;2.83;;;36.30;39.30;;;;;;5061388;28;20381;-63
2022/07/19 09:34:42;;;;;;;4.22;2.53;;;36.50;39.50;;;;;;5062937;28;20062;-62
2022/07/19 09:37:07;;;;;;;6.20;2.85;;;37.20;38.40;;;;;;5067587;28;20098;-64
2022/07/19 09:39:33;;;;;;;4.63;3.00;;;37.30;37.70;;;;;;5049225;28;20049;-62
2022/07/19 09:41:59;;;;;;;6.63;3.00;;;37.70;37.40;;;;;;5062129;28;20051;-62
2022/07/19 09:44:24;;;;;;;3.42;2.67;;;37.70;36.20;;;;;;5054315;28;20041;-63
2022/07/19 09:46:50;;;;;;;3.78;2.58;;;37.90;35.60;;;;;;5062028;28;20074;-63
2022/07/19 09:49:17;;;;;;;5.50;2.80;;;38.20;35.40;;;;;;5052895;28;20071;-64
2022/07/19 09:51:49;;;;;;;4.55;2.30;;;38.00;33.80;;;;;;5066750;28;20115;-65
2022/07/19 09:54:19;;;;;;;3.08;2.38;;;38.10;34.50;;;;;;5057717;28;20040;-63
2022/07/19 09:56:46;;;;;;;4.70;2.40;;;38.30;33.70;;;;;;5058515;28;20045;-63
2022/07/19 09:59:12;;;;;;;4.65;2.65;;;37.80;34.10;;;;;;5053682;28;20037;-65
2022/07/19 10:01:39;;;;;;;4.45;2.70;;;37.80;34.70;;;;;;5059904;28;20048;-64
2022/07/19 10:04:12;;;;;;;5.82;2.10;;;37.80;34.50;;;;;;5063134;28;20040;-63
2022/07/19 10:06:40;;;;;;;2.75;2.55;;;38.10;33.70;;;;;;5052242;28;20612;-61
2022/07/19 10:09:11;;;;;;;6.13;2.50;;;38.60;33.20;;;;;;5057448;28;20547;-64
2022/07/19 10:11:37;;;;;;;2.60;2.33;;;38.50;32.70;;;;;;5061865;28;20083;-64
2022/07/19 10:14:03;;;;;;;6.32;2.58;;;38.90;32.60;;;;;;5053839;28;20035;-62
2022/07/19 10:16:45;;;;;;;7.40;2.60;;;39.10;33.10;;;;;;5050668;28;20064;-64
2022/07/19 10:19:17;;;;;;;3.50;2.10;;;39.60;33.20;;;;;;5052806;28;20033;-65
2022/07/19 10:21:43;;;;;;;5.25;2.30;;;39.80;31.90;;;;;;5059776;28;20488;-65
2022/07/19 10:24:09;;;;;;;3.00;2.17;;;40.10;30.60;;;;;;5050123;28;20040;-64
2022/07/19 10:26:40;;;;;;;3.90;2.38;;;40.20;30.00;;;;;;5052032;28;20101;-63
2022/07/19 10:29:11;;;;;;;4.40;2.20;;;40.40;29.70;;;;;;5061247;28;20041;-62
2022/07/19 10:31:38;;;;;;;6.30;2.70;;;40.60;30.00;;;;;;5034014;28;20476;-62
2022/07/19 10:34:09;;;;;;;3.97;2.30;;;40.70;29.50;;;;;;5058656;28;20394;-62
2022/07/19 10:36:40;;;;;;;2.90;1.80;;;41.10;29.00;;;;;;5052313;28;20044;-65
2022/07/19 10:39:39;;;;;;;5.57;2.50;;;41.10;28.10;;;;;;5052714;28;20041;-64
2022/07/19 10:42:22;;;;;;;6.50;2.28;;;41.10;28.80;;;;;;5053982;28;20045;-64
2022/07/19 10:44:56;;;;;;;5.72;2.03;;;41.30;29.10;;;;;;5073428;28;20056;-62
2022/07/19 10:47:37;;;;;;;5.78;2.15;;;40.90;28.70;;;;;;5070814;28;20127;-66
2022/07/19 10:50:10;;;;;;;4.70;2.20;;;40.40;27.30;;;;;;5051396;28;20652;-64
2022/07/19 10:52:38;;;;;;;4.93;2.33;;;39.80;28.00;;;;;;5053245;28;20423;-63
2022/07/19 10:55:15;;;;;;;3.30;2.08;;;39.70;28.30;;;;;;5059240;28;20048;-64
2022/07/19 10:57:41;;;;;;;5.13;2.10;;;39.60;27.80;;;;;;5070513;28;20052;-64
2022/07/19 11:00:21;;;;;;;6.03;2.17;;;39.10;28.60;;;;;;5066426;28;20438;-65
2022/07/19 11:02:48;;;;;;;3.50;2.10;;;38.60;29.70;;;;;;5070811;28;20040;-62
2022/07/19 11:05:20;;;;;;;4.72;2.33;;;38.00;29.80;;;;;;5055194;28;20485;-64
2022/07/19 11:07:50;;;;;;;3.42;1.80;;;37.40;29.90;;;;;;5062954;28;20484;-63
2022/07/19 11:10:30;;;;;;;3.92;2.00;;;37.20;30.10;;;;;;5060639;28;20045;-63
2022/07/19 11:12:58;;;;;;;3.50;2.53;;;36.70;30.50;;;;;;5051404;28;20062;-65
2022/07/19 11:15:27;;;;;;;5.05;2.30;;;36.40;31.10;;;;;;5062740;28;20075;-65
2022/07/19 11:17:56;;;;;;;4.72;2.25;;;36.00;31.70;;;;;;5052311;28;20052;-64
2022/07/19 11:20:23;;;;;;;3.92;2.17;;;35.80;32.10;;;;;;5053770;28;20687;-63
2022/07/19 11:22:49;;;;;;;3.28;2.22;;;35.60;32.10;;;;;;5070499;28;20040;-61
2022/07/19 11:25:22;;;;;;;4.38;2.70;;;35.50;32.90;;;;;;5059004;28;20504;-64
2022/07/19 11:27:48;;;;;;;4.82;2.58;;;35.40;32.30;;;;;;5056132;28;20392;-63
2022/07/19 11:30:14;;;;;;;4.00;2.30;;;35.40;32.50;;;;;;5066217;28;20037;-65
2022/07/19 11:32:44;;;;;;;4.18;2.42;;;35.30;32.20;;;;;;5065626;28;20119;-64
2022/07/19 11:35:12;;;;;;;4.45;2.30;;;35.10;32.20;;;;;;5051863;28;20136;-63
2022/07/19 11:37:40;;;;;;;6.95;2.67;;;35.10;32.30;;;;;;5051308;28;20037;-62
2022/07/19 11:40:07;;;;;;;3.72;2.30;;;35.00;32.70;;;;;;5052759;28;20055;-64
2022/07/19 11:42:34;;;;;;;4.85;2.47;;;34.70;32.80;;;;;;5053064;28;20033;-64
2022/07/19 11:45:11;;;;;;;5.13;2.50;;;34.90;33.40;;;;;;5069279;28;20050;-63
2022/07/19 11:47:41;;;;;;;3.80;1.92;;;35.10;34.00;;;;;;5057055;28;20094;-61
2022/07/19 11:50:10;;;;;;;3.67;2.10;;;34.90;33.60;;;;;;5059735;28;20664;-63
2022/07/19 11:52:42;;;;;;;3.70;1.90;;;35.00;34.00;;;;;;5072286;28;20039;-63
2022/07/19 11:55:09;;;;;;;4.13;2.20;;;35.00;33.30;;;;;;5070617;28;20051;-62
2022/07/19 11:57:35;;;;;;;6.10;2.40;;;35.00;32.90;;;;;;5073638;28;20049;-63
2022/07/19 12:00:01;;;;;;;5.25;2.42;;;35.00;32.90;;;;;;5062339;28;20048;-62
2022/07/19 12:02:26;;;;;;;2.67;2.30;;;34.90;33.00;;;;;;5052940;28;20103;-63
2022/07/19 12:04:52;;;;;;;2.72;2.35;;;35.20;33.10;;;;;;5051996;28;20138;-63
2022/07/19 12:07:18;;;;;;;3.38;2.40;;;35.40;33.40;;;;;;5050952;28;20035;-62
2022/07/19 12:09:45;;;;;;;3.95;2.33;;;35.60;32.90;;;;;;5057243;28;20082;-63
2022/07/19 12:12:16;;;;;;;6.90;2.13;;;35.70;32.40;;;;;;5071757;28;20044;-62
2022/07/19 12:14:42;;;;;;;2.67;1.98;;;35.70;31.90;;;;;;5066420;28;20033;-63
2022/07/19 12:17:18;;;;;;;4.53;2.30;;;35.80;32.00;;;;;;5070992;28;20036;-62
2022/07/19 12:19:47;;;;;;;5.32;2.38;;;36.00;32.50;;;;;;5064038;28;20817;-62
2022/07/19 12:22:39;;;;;;;3.85;1.90;;;36.10;31.80;;;;;;5051585;28;20529;-63
2022/07/19 12:25:07;;;;;;;5.22;1.75;;;36.40;29.70;;;;;;5051027;28;20052;-62
2022/07/19 12:27:33;;;;;;;3.13;2.20;;;36.50;29.70;;;;;;5052167;28;20052;-63
2022/07/19 12:30:01;;;;;;;2.92;1.75;;;36.70;29.70;;;;;;5052013;28;20032;-63
2022/07/19 12:32:36;;;;;;;3.25;1.85;;;37.40;29.30;;;;;;5051652;28;20036;-64
2022/07/19 12:35:10;;;;;;;6.28;1.98;;;38.70;28.50;;;;;;5057797;28;20044;-63
2022/07/19 12:37:41;;;;;;;5.70;1.90;;;40.00;27.50;;;;;;5057621;28;20048;-65
2022/07/19 12:40:21;;;;;;;4.15;2.15;;;40.90;26.80;;;;;;5048602;28;20049;-63
2022/07/19 12:42:49;;;;;;;3.42;1.60;;;42.00;26.10;;;;;;5052443;28;20064;-63
2022/07/19 12:45:18;;;;;;;3.53;1.83;;;42.90;25.90;;;;;;5051167;28;20560;-65
2022/07/19 12:47:45;;;;;;;6.15;1.90;;;43.10;25.30;;;;;;5051512;28;20041;-63